createdAt,value
2023-04-25T00:02:13.348Z,64.30
2023-04-25T00:04:41.123Z,64.10
2023-04-25T00:07:08.176Z,64.40
2023-04-25T00:09:35.031Z,64.30
2023-04-25T00:12:02.485Z,64.30
2023-04-25T00:14:30.192Z,64.30
2023-04-25T00:16:57.175Z,64.50
2023-04-25T00:19:24.088Z,64.70
2023-04-25T00:21:51.000Z,64.70
2023-04-25T00:24:17.861Z,64.60
2023-04-25T00:26:44.751Z,65.00
2023-04-25T00:29:11.639Z,64.70
2023-04-25T00:31:38.545Z,65.10
2023-04-25T00:34:05.564Z,65.00
2023-04-25T00:36:32.439Z,65.20
2023-04-25T00:38:59.281Z,65.00
2023-04-25T00:41:27.529Z,65.50
2023-04-25T00:43:56.451Z,65.40
2023-04-25T00:46:23.472Z,65.50
2023-04-25T00:48:50.254Z,65.40
2023-04-25T00:51:22.154Z,65.40
2023-04-25T00:53:51.062Z,64.60
2023-04-25T00:56:18.715Z,64.80
2023-04-25T00:58:45.701Z,64.60
2023-04-25T01:01:13.769Z,64.90
2023-04-25T01:03:44.482Z,64.90
2023-04-25T01:06:13.483Z,64.70
2023-04-25T01:08:40.491Z,65.00
2023-04-25T01:11:07.780Z,64.60
2023-04-25T01:13:35.491Z,65.20
2023-04-25T01:16:03.904Z,65.00
2023-04-25T01:18:30.812Z,65.20
2023-04-25T01:21:07.786Z,65.40
2023-04-25T01:23:34.709Z,65.40
2023-04-25T01:26:02.259Z,65.70
2023-04-25T01:28:30.044Z,65.90
2023-04-25T01:30:57.987Z,65.80
2023-04-25T01:33:24.879Z,65.40
2023-04-25T01:35:51.991Z,65.70
2023-04-25T01:38:18.824Z,65.50
2023-04-25T01:40:48.160Z,65.40
2023-04-25T01:43:15.399Z,65.20
2023-04-25T01:45:43.232Z,65.30
2023-04-25T01:48:11.452Z,65.30
2023-04-25T01:50:39.339Z,65.30
2023-04-25T01:53:06.714Z,65.30
2023-04-25T01:55:33.739Z,65.00
2023-04-25T01:58:01.687Z,65.10
2023-04-25T02:00:28.543Z,65.20
2023-04-25T02:02:58.648Z,64.90
2023-04-25T02:05:25.577Z,65.20
2023-04-25T02:07:52.336Z,64.90
2023-04-25T02:10:19.143Z,64.90
2023-04-25T02:12:46.012Z,65.10
2023-04-25T02:15:12.907Z,65.10
2023-04-25T02:17:40.276Z,65.00
2023-04-25T02:20:07.669Z,64.80
2023-04-25T02:22:35.103Z,64.80
2023-04-25T02:25:02.053Z,64.80
2023-04-25T02:27:28.830Z,64.70
2023-04-25T02:29:55.550Z,64.80
2023-04-25T02:32:22.492Z,64.60
2023-04-25T02:34:49.310Z,64.90
2023-04-25T02:37:16.104Z,65.00
2023-04-25T02:39:42.882Z,64.80
2023-04-25T02:42:09.670Z,64.60
2023-04-25T02:44:36.412Z,65.00
2023-04-25T02:47:03.309Z,64.90
2023-04-25T02:49:30.223Z,64.50
2023-04-25T02:51:56.988Z,65.00
2023-04-25T02:54:23.824Z,64.90
2023-04-25T02:56:50.905Z,64.70
2023-04-25T02:59:17.643Z,65.30
2023-04-25T03:01:44.512Z,64.80
2023-04-25T03:04:11.332Z,64.80
2023-04-25T03:06:38.116Z,65.20
2023-04-25T03:09:05.481Z,65.00
2023-04-25T03:11:32.264Z,65.20
2023-04-25T03:13:59.121Z,65.10
2023-04-25T03:16:26.211Z,65.00
2023-04-25T03:18:52.986Z,65.40
2023-04-25T03:21:19.771Z,65.50
2023-04-25T03:23:46.626Z,65.10
2023-04-25T03:26:13.466Z,65.40
2023-04-25T03:28:41.146Z,65.20
2023-04-25T03:31:07.857Z,65.20
2023-04-25T03:33:34.607Z,65.20
2023-04-25T03:36:01.376Z,65.00
2023-04-25T03:38:28.136Z,65.30
2023-04-25T03:40:55.233Z,65.30
2023-04-25T03:43:22.055Z,65.20
2023-04-25T03:45:49.008Z,65.00
2023-04-25T03:48:16.214Z,65.10
2023-04-25T03:50:43.013Z,65.00
2023-04-25T03:53:09.774Z,65.30
2023-04-25T03:55:36.522Z,65.10
2023-04-25T03:58:03.255Z,65.70
2023-04-25T04:00:30.052Z,65.50
2023-04-25T04:02:57.012Z,65.30
2023-04-25T04:05:24.489Z,65.40
2023-04-25T04:07:51.363Z,65.50
2023-04-25T04:10:18.119Z,65.50
2023-04-25T04:12:45.334Z,65.70
2023-04-25T04:15:12.886Z,65.40
2023-04-25T04:17:40.022Z,65.60
2023-04-25T04:20:07.742Z,65.90
2023-04-25T04:22:34.558Z,65.40
2023-04-25T04:25:01.363Z,65.60
2023-04-25T04:27:29.753Z,65.70
2023-04-25T04:29:57.187Z,66.00
2023-04-25T04:32:24.777Z,65.60
2023-04-25T04:34:51.631Z,65.50
2023-04-25T04:37:19.525Z,65.30
2023-04-25T04:39:46.699Z,65.10
2023-04-25T04:42:13.572Z,65.40
2023-04-25T04:44:40.474Z,65.10
2023-04-25T04:47:07.319Z,65.10
2023-04-25T04:49:35.072Z,65.00
2023-04-25T04:52:01.946Z,64.80
2023-04-25T04:54:28.800Z,64.80
2023-04-25T04:56:55.767Z,64.60
2023-04-25T04:59:22.648Z,64.50
2023-04-25T05:01:49.370Z,64.40
2023-04-25T05:04:16.203Z,64.60
2023-04-25T05:06:43.122Z,65.00
2023-04-25T05:09:09.971Z,64.40
2023-04-25T05:11:36.700Z,64.60
2023-04-25T05:14:03.637Z,64.70
2023-04-25T05:16:30.508Z,64.70
2023-04-25T05:18:57.391Z,64.60
2023-04-25T05:21:24.438Z,64.50
2023-04-25T05:23:51.457Z,64.50
2023-04-25T05:26:18.431Z,64.20
2023-04-25T05:28:45.179Z,64.10
2023-04-25T05:31:11.998Z,64.10
2023-04-25T05:33:39.052Z,64.30
2023-04-25T05:36:06.285Z,64.00
2023-04-25T05:38:34.815Z,64.10
2023-04-25T05:41:02.047Z,64.60
2023-04-25T05:43:28.854Z,64.20
2023-04-25T05:45:55.862Z,64.70
2023-04-25T05:48:22.717Z,64.60
2023-04-25T05:50:49.690Z,64.10
2023-04-25T05:53:16.534Z,64.60
2023-04-25T05:55:43.560Z,64.20
2023-04-25T05:58:10.633Z,64.60
2023-04-25T06:00:37.550Z,64.20
2023-04-25T06:03:04.950Z,63.90
2023-04-25T06:05:31.869Z,64.20
2023-04-25T06:07:58.696Z,64.40
2023-04-25T06:10:25.803Z,64.30
2023-04-25T06:12:52.538Z,64.20
2023-04-25T06:17:49.923Z,63.80
2023-04-25T06:20:17.010Z,64.00
2023-04-25T06:22:43.792Z,63.60
2023-04-25T06:25:10.634Z,63.50
2023-04-25T06:27:38.500Z,64.20
2023-04-25T06:30:06.205Z,64.20
2023-04-25T06:32:33.514Z,64.00
2023-04-25T06:35:00.454Z,63.60
2023-04-25T06:37:27.836Z,63.20
2023-04-25T06:39:54.588Z,63.30
2023-04-25T06:42:21.365Z,62.70
2023-04-25T06:44:48.241Z,62.00
2023-04-25T06:47:15.865Z,61.40
2023-04-25T06:49:42.694Z,61.10
2023-04-25T06:52:09.766Z,60.50
2023-04-25T06:54:36.879Z,60.40
2023-04-25T06:57:04.056Z,59.10
2023-04-25T06:59:30.865Z,58.70
2023-04-25T07:01:58.688Z,58.90
2023-04-25T07:04:26.290Z,58.40
2023-04-25T07:06:53.349Z,59.10
2023-04-25T07:09:20.722Z,58.80
2023-04-25T07:11:47.627Z,58.50
2023-04-25T07:14:14.699Z,58.50
2023-04-25T07:16:41.619Z,57.90
2023-04-25T07:19:08.489Z,57.10
2023-04-25T07:21:36.009Z,56.40
2023-04-25T07:24:03.743Z,56.20
2023-04-25T07:26:30.681Z,56.40
2023-04-25T07:28:57.498Z,56.30
2023-04-25T07:31:24.737Z,56.70
2023-04-25T07:33:51.519Z,56.90
2023-04-25T07:36:18.331Z,57.30
2023-04-25T07:38:45.265Z,57.20
2023-04-25T07:41:12.160Z,56.90
2023-04-25T07:43:39.013Z,56.50
2023-04-25T07:46:06.172Z,57.00
2023-04-25T07:48:33.050Z,56.20
2023-04-25T07:51:01.433Z,55.80
2023-04-25T07:53:28.267Z,55.70
2023-04-25T07:55:55.139Z,53.50
2023-04-25T07:58:23.175Z,53.30
2023-04-25T08:00:50.997Z,52.60
2023-04-25T08:03:18.121Z,52.20
2023-04-25T08:05:45.252Z,52.40
2023-04-25T08:08:12.298Z,51.70
2023-04-25T08:10:39.133Z,51.60
2023-04-25T08:13:06.013Z,51.20
2023-04-25T08:15:32.914Z,51.20
2023-04-25T08:18:00.867Z,51.50
2023-04-25T08:20:27.724Z,52.10
2023-04-25T08:22:54.564Z,52.60
2023-04-25T08:25:21.442Z,52.50
2023-04-25T08:27:48.168Z,52.20
2023-04-25T08:30:15.379Z,51.90
2023-04-25T08:32:42.296Z,51.90
2023-04-25T08:35:09.465Z,51.80
2023-04-25T08:37:37.422Z,51.50
2023-04-25T08:40:08.198Z,51.50
2023-04-25T08:42:37.755Z,51.30
2023-04-25T08:47:54.278Z,50.90
2023-04-25T08:50:23.407Z,51.00
2023-04-25T08:52:53.542Z,50.50
2023-04-25T08:55:22.870Z,50.00
2023-04-25T08:57:50.650Z,50.30
2023-04-25T09:00:17.980Z,50.30
2023-04-25T09:02:45.473Z,50.40
2023-04-25T09:05:15.203Z,49.80
2023-04-25T09:07:41.961Z,49.30
2023-04-25T09:10:09.228Z,49.40
2023-04-25T09:12:36.708Z,49.30
2023-04-25T09:15:11.006Z,50.80
2023-04-25T09:17:41.498Z,51.20
2023-04-25T09:20:12.893Z,53.00
2023-04-25T09:22:40.232Z,53.30
2023-04-25T09:25:15.661Z,52.40
2023-04-25T09:27:53.282Z,51.40
2023-04-25T09:30:29.529Z,51.70
2023-04-25T09:32:59.264Z,51.30
2023-04-25T09:35:27.557Z,48.20
2023-04-25T09:37:54.891Z,49.00
2023-04-25T09:40:21.892Z,49.20
2023-04-25T09:42:48.681Z,49.20
2023-04-25T09:45:16.249Z,48.10
2023-04-25T09:47:45.047Z,47.80
2023-04-25T09:50:20.336Z,45.90
2023-04-25T09:53:02.817Z,45.70
2023-04-25T09:55:29.873Z,45.80
2023-04-25T09:58:00.613Z,45.40
2023-04-25T10:00:27.686Z,44.90
2023-04-25T10:02:56.382Z,43.50
2023-04-25T10:05:24.095Z,43.80
2023-04-25T10:07:51.894Z,43.00
2023-04-25T10:10:20.947Z,42.70
2023-04-25T10:12:48.017Z,41.70
2023-04-25T10:15:16.039Z,41.50
2023-04-25T10:17:43.453Z,41.70
2023-04-25T10:20:12.105Z,42.70
2023-04-25T10:22:49.367Z,42.50
2023-04-25T10:25:16.419Z,42.50
2023-04-25T10:27:43.610Z,42.10
2023-04-25T10:30:16.454Z,41.70
2023-04-25T10:32:50.919Z,41.40
2023-04-25T10:35:19.840Z,41.60
2023-04-25T10:38:07.401Z,40.70
2023-04-25T10:40:34.786Z,41.50
2023-04-25T10:43:32.927Z,42.40
2023-04-25T10:46:04.304Z,42.90
2023-04-25T10:48:32.511Z,41.80
2023-04-25T10:51:12.734Z,40.90
2023-04-25T10:53:39.588Z,40.00
2023-04-25T10:56:18.113Z,39.70
2023-04-25T10:58:46.140Z,39.90
2023-04-25T11:01:20.357Z,37.60
2023-04-25T11:03:51.638Z,37.90
2023-04-25T11:06:38.933Z,37.70
2023-04-25T11:09:14.394Z,38.10
2023-04-25T11:11:41.431Z,38.20
2023-04-25T11:14:08.399Z,38.60
2023-04-25T11:16:35.261Z,38.60
2023-04-25T11:19:02.045Z,38.50
2023-04-25T11:21:30.028Z,38.40
2023-04-25T11:24:00.824Z,38.50
2023-04-25T11:26:27.598Z,38.00
2023-04-25T11:29:00.226Z,38.40
2023-04-25T11:31:27.231Z,38.20
2023-04-25T11:34:01.018Z,37.70
2023-04-25T11:36:28.502Z,37.90
2023-04-25T11:38:55.822Z,38.70
2023-04-25T11:41:23.350Z,36.70
2023-04-25T11:43:53.004Z,36.70
2023-04-25T11:46:21.221Z,36.90
2023-04-25T11:48:49.072Z,36.20
2023-04-25T11:51:16.159Z,35.90
2023-04-25T11:53:45.236Z,35.30
2023-04-25T11:56:12.968Z,35.70
2023-04-25T11:58:58.745Z,35.60
2023-04-25T12:01:36.802Z,35.30
2023-04-25T12:04:23.196Z,34.30
2023-04-25T12:06:52.718Z,34.90
2023-04-25T12:09:22.560Z,34.90
2023-04-25T12:11:54.250Z,35.20
2023-04-25T12:14:29.840Z,34.60
2023-04-25T12:17:01.134Z,35.00
2023-04-25T12:19:34.513Z,35.80
2023-04-25T12:22:03.282Z,36.80
2023-04-25T12:24:30.145Z,37.60
2023-04-25T12:27:05.562Z,39.60
2023-04-25T12:29:48.375Z,40.10
2023-04-25T12:32:16.619Z,41.20
2023-04-25T12:34:43.515Z,41.60
2023-04-25T12:37:10.823Z,43.20
2023-04-25T12:39:37.653Z,44.40
2023-04-25T12:42:06.912Z,47.40
2023-04-25T12:44:35.957Z,49.40
2023-04-25T12:47:04.155Z,50.70
2023-04-25T12:49:31.274Z,63.10
2023-04-25T12:51:58.276Z,68.90
2023-04-25T12:54:25.760Z,73.50
2023-04-25T12:56:52.661Z,73.70
2023-04-25T12:59:20.844Z,75.50
2023-04-25T13:01:48.060Z,76.80
2023-04-25T13:04:14.915Z,76.70
2023-04-25T13:06:41.770Z,78.20
2023-04-25T13:09:08.677Z,79.50
2023-04-25T13:11:36.496Z,79.90
2023-04-25T13:14:03.909Z,80.10
2023-04-25T13:16:30.850Z,79.60
2023-04-25T13:18:57.631Z,79.80
2023-04-25T13:21:24.509Z,80.50
2023-04-25T13:23:51.809Z,80.40
2023-04-25T13:26:18.935Z,80.20
2023-04-25T13:28:45.905Z,79.60
2023-04-25T13:31:12.753Z,78.90
2023-04-25T13:33:39.514Z,79.40
2023-04-25T13:36:06.704Z,79.80
2023-04-25T13:38:33.707Z,80.20
2023-04-25T13:41:00.671Z,79.90
2023-04-25T13:43:27.909Z,80.20
2023-04-25T13:45:54.690Z,80.30
2023-04-25T13:48:21.855Z,80.50
2023-04-25T13:50:48.746Z,79.90
2023-04-25T13:53:15.840Z,79.50
2023-04-25T13:55:42.695Z,78.10
2023-04-25T13:58:10.900Z,78.10
2023-04-25T14:00:44.495Z,79.10
2023-04-25T14:03:11.595Z,79.20
2023-04-25T14:05:39.325Z,78.90
2023-04-25T14:08:10.484Z,79.70
2023-04-25T14:10:38.614Z,80.00
2023-04-25T14:13:05.655Z,79.60
2023-04-25T14:15:33.576Z,79.90
2023-04-25T14:18:01.889Z,80.20
2023-04-25T14:20:29.684Z,79.60
2023-04-25T14:22:58.224Z,79.30
2023-04-25T14:25:25.489Z,78.20
2023-04-25T14:27:52.246Z,77.40
2023-04-25T14:30:20.127Z,77.90
2023-04-25T14:32:47.472Z,77.80
2023-04-25T14:35:14.451Z,77.90
2023-04-25T14:37:41.433Z,76.80
2023-04-25T14:40:13.986Z,76.20
2023-04-25T14:42:41.015Z,75.90
2023-04-25T14:45:09.518Z,77.40
2023-04-25T14:47:38.213Z,73.40
2023-04-25T14:50:06.555Z,73.30
2023-04-25T14:52:33.367Z,71.20
2023-04-25T14:55:05.719Z,71.70
2023-04-25T14:57:33.855Z,72.60
2023-04-25T15:00:01.097Z,73.20
2023-04-25T15:02:28.871Z,74.50
2023-04-25T15:04:56.990Z,74.60
2023-04-25T15:07:24.200Z,75.50
2023-04-25T15:09:51.015Z,75.30
2023-04-25T15:12:17.863Z,74.20
2023-04-25T15:14:44.638Z,74.30
2023-04-25T15:17:13.842Z,75.00
2023-04-25T15:19:41.196Z,74.00
2023-04-25T15:22:08.153Z,74.20
2023-04-25T15:24:35.219Z,73.40
2023-04-25T15:27:02.123Z,73.30
2023-04-25T15:29:29.720Z,73.40
2023-04-25T15:31:56.814Z,74.80
2023-04-25T15:34:23.643Z,73.80
2023-04-25T15:36:50.399Z,73.80
2023-04-25T15:39:17.719Z,73.50
2023-04-25T15:41:44.523Z,73.70
2023-04-25T15:44:11.330Z,73.60
2023-04-25T15:46:38.665Z,73.20
2023-04-25T15:49:05.490Z,73.90
2023-04-25T15:51:33.639Z,73.60
2023-04-25T15:54:02.900Z,72.00
2023-04-25T15:56:29.760Z,72.20
2023-04-25T15:58:56.553Z,69.80
2023-04-25T16:01:24.732Z,68.30
2023-04-25T16:03:53.163Z,69.00
2023-04-25T16:06:20.404Z,70.70
2023-04-25T16:08:47.258Z,72.20
2023-04-25T16:11:14.929Z,73.10
2023-04-25T16:13:41.821Z,70.50
2023-04-25T16:16:08.988Z,68.80
2023-04-25T16:18:35.999Z,68.50
2023-04-25T16:21:03.473Z,68.00
2023-04-25T16:23:31.374Z,69.70
2023-04-25T16:25:58.242Z,71.50
2023-04-25T16:28:25.065Z,68.70
2023-04-25T16:30:51.909Z,68.50
2023-04-25T16:33:18.882Z,68.10
2023-04-25T16:35:45.647Z,67.00
2023-04-25T16:38:12.414Z,67.40
2023-04-25T16:40:39.248Z,68.90
2023-04-25T16:43:06.014Z,65.70
2023-04-25T16:45:32.769Z,65.30
2023-04-25T16:47:59.553Z,64.30
2023-04-25T16:50:27.125Z,63.60
2023-04-25T16:52:54.660Z,64.30
2023-04-25T16:55:22.131Z,64.60
2023-04-25T16:57:49.008Z,63.80
2023-04-25T17:00:16.627Z,62.80
2023-04-25T17:02:43.834Z,62.00
2023-04-25T17:05:10.791Z,62.90
2023-04-25T17:07:37.586Z,63.10
2023-04-25T17:10:04.788Z,64.90
2023-04-25T17:12:31.570Z,63.70
2023-04-25T17:15:00.413Z,64.40
2023-04-25T17:17:27.877Z,63.60
2023-04-25T17:19:54.779Z,64.20
2023-04-25T17:22:22.411Z,65.70
2023-04-25T17:24:49.523Z,64.90
2023-04-25T17:27:16.366Z,64.00
2023-04-25T17:29:43.285Z,65.40
2023-04-25T17:32:10.584Z,64.50
2023-04-25T17:34:40.005Z,67.10
2023-04-25T17:37:08.502Z,66.40
2023-04-25T17:39:35.274Z,66.10
2023-04-25T17:42:02.450Z,64.60
2023-04-25T17:44:29.280Z,65.70
2023-04-25T17:46:56.048Z,64.30
2023-04-25T17:49:22.940Z,63.50
2023-04-25T17:51:49.758Z,62.80
2023-04-25T17:54:16.942Z,63.00
2023-04-25T17:56:44.808Z,66.10
2023-04-25T17:59:11.695Z,66.80
2023-04-25T18:01:38.616Z,67.40
2023-04-25T18:04:05.892Z,69.30
2023-04-25T18:06:33.227Z,69.20
2023-04-25T18:09:00.210Z,69.90
2023-04-25T18:11:39.470Z,68.50
2023-04-25T18:14:06.432Z,69.00
2023-04-25T18:16:33.276Z,70.30
2023-04-25T18:19:05.412Z,71.70
2023-04-25T18:21:32.529Z,72.00
2023-04-25T18:23:59.276Z,72.40
2023-04-25T18:26:26.060Z,72.40
2023-04-25T18:28:53.073Z,72.30
2023-04-25T18:31:25.269Z,72.00
2023-04-25T18:33:52.448Z,70.90
2023-04-25T18:36:19.395Z,71.20
2023-04-25T18:38:50.331Z,71.40
2023-04-25T18:41:48.067Z,70.70
2023-04-25T18:44:05.338Z,70.40
2023-04-25T18:46:32.996Z,72.00
2023-04-25T18:49:00.871Z,71.50
2023-04-25T18:51:31.603Z,72.20
2023-04-25T18:53:59.328Z,72.20
2023-04-25T18:56:27.529Z,72.60
2023-04-25T18:58:55.434Z,72.60
2023-04-25T19:01:25.179Z,73.00
2023-04-25T19:03:57.134Z,72.90
2023-04-25T19:06:28.074Z,73.10
2023-04-25T19:08:56.414Z,73.00
2023-04-25T19:11:24.134Z,72.60
2023-04-25T19:13:52.829Z,72.50
2023-04-25T19:16:19.773Z,72.20
2023-04-25T19:18:46.973Z,72.80
2023-04-25T19:21:14.081Z,71.80
2023-04-25T19:23:41.458Z,72.70
2023-04-25T19:26:08.533Z,73.10
2023-04-25T19:28:35.299Z,73.10
2023-04-25T19:31:02.511Z,73.70
2023-04-25T19:33:29.518Z,73.70
2023-04-25T19:35:56.541Z,73.80
2023-04-25T19:38:23.337Z,73.60
2023-04-25T19:40:50.230Z,73.40
2023-04-25T19:43:17.568Z,73.80
2023-04-25T19:45:44.352Z,74.40
2023-04-25T19:48:12.233Z,74.40
2023-04-25T19:50:39.027Z,73.90
2023-04-25T19:53:05.956Z,74.40
2023-04-25T19:55:32.920Z,74.20
2023-04-25T19:57:59.670Z,74.60
2023-04-25T20:00:26.909Z,74.90
2023-04-25T20:02:55.566Z,74.80
2023-04-25T20:05:23.555Z,74.90
2023-04-25T20:07:50.491Z,75.80
2023-04-25T20:10:18.558Z,75.40
2023-04-25T20:12:45.780Z,75.90
2023-04-25T20:15:13.579Z,76.10
2023-04-25T20:17:42.464Z,76.30
2023-04-25T20:20:11.376Z,76.80
2023-04-25T20:22:40.174Z,76.80
2023-04-25T20:25:08.805Z,77.20
2023-04-25T20:27:37.954Z,77.20
2023-04-25T20:30:08.653Z,77.10
2023-04-25T20:32:36.373Z,77.00
2023-04-25T20:35:04.753Z,77.60
2023-04-25T20:37:31.854Z,77.70
2023-04-25T20:40:03.717Z,77.40
2023-04-25T20:42:34.361Z,77.40
2023-04-25T20:45:01.283Z,78.00
2023-04-25T20:47:28.907Z,78.00
2023-04-25T20:49:55.668Z,78.00
2023-04-25T20:52:22.838Z,77.80
2023-04-25T20:54:50.660Z,78.10
2023-04-25T20:57:17.773Z,78.20
2023-04-25T20:59:44.849Z,78.50
2023-04-25T21:02:15.823Z,78.60
2023-04-25T21:04:46.250Z,78.20
2023-04-25T21:07:13.528Z,78.10
2023-04-25T21:09:41.852Z,78.00
2023-04-25T21:12:09.004Z,78.20
2023-04-25T21:14:35.894Z,78.30
2023-04-25T21:17:03.893Z,77.80
2023-04-25T21:19:31.175Z,79.00
2023-04-25T21:21:58.928Z,79.10
2023-04-25T21:24:27.147Z,79.20
2023-04-25T21:26:53.994Z,79.40
2023-04-25T21:29:20.809Z,79.50
2023-04-25T21:31:48.979Z,79.60
2023-04-25T21:34:15.921Z,79.60
2023-04-25T21:36:44.269Z,79.70
2023-04-25T21:39:11.387Z,79.70
2023-04-25T21:41:38.684Z,79.50
2023-04-25T21:44:06.477Z,79.80
2023-04-25T21:46:33.985Z,79.70
2023-04-25T21:49:01.137Z,79.60
2023-04-25T21:51:29.093Z,79.90
2023-04-25T21:53:55.910Z,79.70
2023-04-25T21:56:23.126Z,79.90
2023-04-25T21:58:50.776Z,80.00
2023-04-25T22:01:18.220Z,80.10
2023-04-25T22:03:45.190Z,79.90
2023-04-25T22:06:12.164Z,80.10
2023-04-25T22:08:40.329Z,79.70
2023-04-25T22:11:08.146Z,79.90
2023-04-25T22:13:35.885Z,79.80
2023-04-25T22:16:02.877Z,79.90
2023-04-25T22:18:30.501Z,79.70
2023-04-25T22:20:57.379Z,79.80
2023-04-25T22:23:24.201Z,79.30
2023-04-25T22:25:50.996Z,79.20
2023-04-25T22:28:18.240Z,79.30
2023-04-25T22:30:45.084Z,79.40
2023-04-25T22:33:11.914Z,79.20
2023-04-25T22:35:38.781Z,79.30
2023-04-25T22:38:05.514Z,79.50
2023-04-25T22:40:32.537Z,79.30
2023-04-25T22:42:59.285Z,79.20
2023-04-25T22:45:26.039Z,78.80
2023-04-25T22:47:53.324Z,78.60
2023-04-25T22:50:20.518Z,78.00
2023-04-25T22:52:48.524Z,78.00
2023-04-25T22:55:15.406Z,78.10
2023-04-25T22:57:42.446Z,78.20
2023-04-25T23:00:19.888Z,77.90
2023-04-25T23:02:47.294Z,78.60
2023-04-25T23:05:15.068Z,78.40
2023-04-25T23:07:42.470Z,78.10
2023-04-25T23:10:09.641Z,77.90
2023-04-25T23:12:36.594Z,77.80
2023-04-25T23:15:05.213Z,77.60
2023-04-25T23:17:32.182Z,78.00
2023-04-25T23:19:59.028Z,77.60
2023-04-25T23:22:25.861Z,77.90
2023-04-25T23:24:52.585Z,78.10
2023-04-25T23:27:19.381Z,77.70
2023-04-25T23:29:54.717Z,78.30
2023-04-25T23:32:22.367Z,78.30
2023-04-25T23:34:49.484Z,78.30
2023-04-25T23:37:16.534Z,78.10
2023-04-25T23:39:53.385Z,78.60
2023-04-25T23:42:20.562Z,78.20
2023-04-25T23:44:47.408Z,78.60
2023-04-25T23:47:17.545Z,78.60
2023-04-25T23:49:45.180Z,78.90
2023-04-25T23:52:12.024Z,78.80
2023-04-25T23:54:39.933Z,79.00
2023-04-25T23:57:06.766Z,78.90
2023-04-25T23:59:33.759Z,78.80
